createdAt,value
2018-05-17T00:01:23.897Z,85.90
2018-05-17T00:03:49.777Z,85.25
2018-05-17T00:06:15.669Z,85.94
2018-05-17T00:08:41.560Z,85.77
2018-05-17T00:11:07.404Z,85.29
2018-05-17T00:13:33.272Z,85.44
2018-05-17T00:15:59.149Z,85.63
2018-05-17T00:18:25.008Z,85.53
2018-05-17T00:20:50.841Z,86.13
2018-05-17T00:23:16.709Z,85.01
2018-05-17T00:25:42.594Z,84.64
2018-05-17T00:28:08.484Z,85.13
2018-05-17T00:30:34.341Z,85.06
2018-05-17T00:33:00.193Z,84.43
2018-05-17T00:35:26.032Z,84.89
2018-05-17T00:37:51.937Z,85.80
2018-05-17T00:40:17.769Z,86.52
2018-05-17T00:42:43.616Z,86.92
2018-05-17T00:45:09.467Z,87.25
2018-05-17T00:47:35.318Z,85.37
2018-05-17T00:50:01.144Z,84.99
2018-05-17T00:52:27.054Z,84.71
2018-05-17T00:54:52.850Z,85.69
2018-05-17T00:57:18.721Z,85.15
2018-05-17T00:59:44.585Z,85.60
2018-05-17T01:02:10.461Z,86.61
2018-05-17T01:04:36.317Z,85.64
2018-05-17T01:07:02.197Z,84.87
2018-05-17T01:09:28.061Z,84.78
2018-05-17T01:11:53.939Z,85.85
2018-05-17T01:14:19.788Z,86.63
2018-05-17T01:16:45.642Z,86.94
2018-05-17T01:19:11.473Z,86.63
2018-05-17T01:21:37.345Z,87.87
2018-05-17T01:24:03.221Z,86.68
2018-05-17T01:26:29.071Z,85.72
2018-05-17T01:28:54.914Z,85.77
2018-05-17T01:31:20.729Z,86.67
2018-05-17T01:33:46.567Z,88.52
2018-05-17T01:36:12.392Z,89.31
2018-05-17T01:38:38.293Z,89.09
2018-05-17T01:41:04.141Z,89.07
2018-05-17T01:43:29.978Z,88.00
2018-05-17T01:45:55.848Z,87.30
2018-05-17T01:48:21.729Z,87.53
2018-05-17T01:50:47.575Z,87.52
2018-05-17T01:53:14.401Z,89.16
2018-05-17T01:55:40.268Z,89.93
2018-05-17T01:58:06.106Z,90.68
2018-05-17T02:00:31.964Z,91.59
2018-05-17T02:02:57.850Z,90.96
2018-05-17T02:05:23.667Z,90.72
2018-05-17T02:07:49.490Z,90.24
2018-05-17T02:10:15.331Z,89.19
2018-05-17T02:12:41.173Z,88.85
2018-05-17T02:15:07.093Z,87.90
2018-05-17T02:17:32.932Z,87.51
2018-05-17T02:19:58.791Z,88.13
2018-05-17T02:22:24.637Z,90.29
2018-05-17T02:24:50.492Z,91.07
2018-05-17T02:27:16.349Z,91.97
2018-05-17T02:29:42.188Z,91.76
2018-05-17T02:32:08.053Z,92.23
2018-05-17T02:34:33.921Z,91.92
2018-05-17T02:36:59.817Z,91.55
2018-05-17T02:39:25.698Z,91.24
2018-05-17T02:41:51.568Z,90.82
2018-05-17T02:44:17.406Z,91.79
2018-05-17T02:46:43.289Z,91.70
2018-05-17T02:49:09.139Z,91.16
2018-05-17T02:51:35.003Z,92.58
2018-05-17T02:54:00.857Z,92.74
2018-05-17T02:56:26.705Z,92.73
2018-05-17T02:58:52.589Z,93.01
2018-05-17T03:01:18.485Z,90.88
2018-05-17T03:03:44.346Z,90.72
2018-05-17T03:06:10.225Z,91.10
2018-05-17T03:08:36.101Z,90.51
2018-05-17T03:11:01.983Z,89.70
2018-05-17T03:13:27.845Z,89.60
2018-05-17T03:15:53.700Z,90.08
2018-05-17T03:18:20.010Z,88.52
2018-05-17T03:20:45.865Z,89.08
2018-05-17T03:23:11.730Z,89.62
2018-05-17T03:25:37.592Z,90.67
2018-05-17T03:28:03.511Z,89.11
2018-05-17T03:30:29.402Z,89.15
2018-05-17T03:32:55.265Z,90.53
2018-05-17T03:35:21.112Z,91.20
2018-05-17T03:37:46.956Z,91.92
2018-05-17T03:40:12.817Z,92.38
2018-05-17T03:42:38.641Z,92.68
2018-05-17T03:45:04.482Z,93.28
2018-05-17T03:47:30.305Z,93.25
2018-05-17T03:49:56.125Z,92.74
2018-05-17T03:52:21.950Z,92.08
2018-05-17T03:54:47.812Z,91.40
2018-05-17T03:57:13.684Z,91.73
2018-05-17T03:59:39.505Z,90.37
2018-05-17T04:02:17.792Z,90.86
2018-05-17T04:04:55.943Z,90.63
2018-05-17T04:07:21.793Z,90.92
2018-05-17T04:09:47.656Z,91.36
2018-05-17T04:12:13.700Z,92.15
2018-05-17T04:14:39.564Z,93.23
2018-05-17T04:17:05.409Z,93.47
2018-05-17T04:19:31.261Z,93.10
2018-05-17T04:21:57.113Z,92.54
2018-05-17T04:24:22.998Z,93.29
2018-05-17T04:26:48.893Z,92.94
2018-05-17T04:29:14.776Z,91.55
2018-05-17T04:31:40.647Z,92.37
2018-05-17T04:34:06.521Z,92.76
2018-05-17T04:36:32.443Z,92.93
2018-05-17T04:38:58.287Z,93.54
2018-05-17T04:41:24.159Z,93.81
2018-05-17T04:43:50.027Z,93.27
2018-05-17T04:46:15.845Z,92.62
2018-05-17T04:48:41.716Z,91.69
2018-05-17T04:51:07.553Z,91.00
2018-05-17T04:53:33.431Z,89.07
2018-05-17T04:55:59.310Z,89.11
2018-05-17T04:58:25.152Z,88.47
2018-05-17T05:00:51.007Z,90.21
2018-05-17T05:03:16.852Z,90.03
2018-05-17T05:05:42.693Z,89.29
2018-05-17T05:08:08.509Z,89.04
2018-05-17T05:10:34.384Z,88.98
2018-05-17T05:13:00.231Z,89.46
2018-05-17T05:15:26.131Z,90.57
2018-05-17T05:17:52.066Z,91.40
2018-05-17T05:20:17.829Z,91.16
2018-05-17T05:22:43.650Z,91.89
2018-05-17T05:25:09.512Z,91.95
2018-05-17T05:27:35.374Z,90.66
2018-05-17T05:30:01.248Z,89.99
2018-05-17T05:32:27.116Z,89.56
2018-05-17T05:34:52.944Z,90.90
2018-05-17T05:37:18.893Z,92.14
2018-05-17T05:39:44.732Z,92.40
2018-05-17T05:42:10.580Z,91.81
2018-05-17T05:44:36.470Z,90.48
2018-05-17T05:47:02.393Z,91.31
2018-05-17T05:49:28.323Z,92.18
2018-05-17T05:51:54.117Z,92.17
2018-05-17T05:54:19.948Z,91.35
2018-05-17T05:56:45.816Z,91.27
2018-05-17T05:59:11.646Z,90.55
2018-05-17T06:01:37.505Z,90.28
2018-05-17T06:04:03.349Z,90.16
2018-05-17T06:06:29.185Z,90.64
2018-05-17T06:08:55.067Z,91.16
2018-05-17T06:11:20.939Z,90.83
2018-05-17T06:13:46.832Z,90.51
2018-05-17T06:16:12.705Z,89.63
2018-05-17T06:18:38.537Z,89.08
2018-05-17T06:21:04.383Z,89.06
2018-05-17T06:23:30.232Z,88.86
2018-05-17T06:25:56.074Z,87.73
2018-05-17T06:28:21.916Z,87.38
2018-05-17T06:30:47.775Z,87.67
2018-05-17T06:33:13.674Z,88.20
2018-05-17T06:35:39.525Z,88.43
2018-05-17T06:38:05.429Z,88.25
2018-05-17T06:40:31.278Z,87.79
2018-05-17T06:42:57.109Z,88.25
2018-05-17T06:45:22.989Z,87.50
2018-05-17T06:47:48.851Z,86.52
2018-05-17T06:50:14.741Z,87.54
2018-05-17T06:52:40.608Z,86.98
2018-05-17T06:55:06.466Z,87.75
2018-05-17T06:57:32.297Z,87.15
2018-05-17T06:59:58.139Z,87.59
2018-05-17T07:02:24.008Z,87.44
2018-05-17T07:04:49.911Z,87.10
2018-05-17T07:07:15.776Z,87.43
2018-05-17T07:09:41.617Z,87.50
2018-05-17T07:12:07.472Z,87.48
2018-05-17T07:14:33.333Z,86.64
2018-05-17T07:16:59.189Z,85.71
2018-05-17T07:19:25.023Z,85.82
2018-05-17T07:21:50.858Z,85.23
2018-05-17T07:24:16.721Z,85.37
2018-05-17T07:26:42.604Z,84.69
2018-05-17T07:29:08.480Z,84.87
2018-05-17T07:31:34.341Z,83.66
2018-05-17T07:34:00.284Z,84.95
2018-05-17T07:36:26.153Z,85.53
2018-05-17T07:38:52.005Z,85.08
2018-05-17T07:41:17.855Z,85.02
2018-05-17T07:43:43.716Z,85.36
2018-05-17T07:46:09.565Z,84.92
2018-05-17T07:48:35.400Z,84.66
2018-05-17T07:51:01.245Z,84.63
2018-05-17T07:53:27.082Z,84.67
2018-05-17T07:55:52.925Z,83.59
2018-05-17T07:58:18.797Z,84.05
2018-05-17T08:00:44.688Z,82.80
2018-05-17T08:03:10.553Z,83.21
2018-05-17T08:05:36.429Z,81.23
2018-05-17T08:08:02.315Z,81.92
2018-05-17T08:10:28.192Z,82.17
2018-05-17T08:12:54.031Z,82.23
2018-05-17T08:15:19.844Z,81.36
2018-05-17T08:17:45.680Z,81.91
2018-05-17T08:20:11.514Z,82.32
2018-05-17T08:22:37.384Z,82.16
2018-05-17T08:25:03.411Z,81.85
2018-05-17T08:27:29.308Z,81.24
2018-05-17T08:29:55.157Z,80.72
2018-05-17T08:32:21.018Z,80.78
2018-05-17T08:34:46.888Z,80.51
2018-05-17T08:37:12.800Z,79.56
2018-05-17T08:39:38.653Z,79.50
2018-05-17T08:42:04.551Z,78.12
2018-05-17T08:44:30.412Z,77.59
2018-05-17T08:46:56.249Z,76.29
2018-05-17T08:49:22.108Z,75.22
2018-05-17T08:51:47.975Z,72.98
2018-05-17T08:54:13.865Z,73.40
2018-05-17T08:56:39.736Z,74.03
2018-05-17T08:59:05.616Z,73.64
2018-05-17T09:01:31.488Z,73.34
2018-05-17T09:03:57.333Z,71.71
2018-05-17T09:06:23.193Z,70.83
2018-05-17T09:08:49.053Z,70.30
2018-05-17T09:11:14.889Z,70.71
2018-05-17T09:13:40.792Z,69.23
2018-05-17T09:16:06.632Z,69.50
2018-05-17T09:18:32.525Z,68.59
2018-05-17T09:20:58.389Z,69.76
2018-05-17T09:23:24.220Z,68.88
2018-05-17T09:25:50.053Z,68.17
2018-05-17T09:28:15.921Z,67.19
2018-05-17T09:30:41.779Z,66.75
2018-05-17T09:33:07.649Z,65.31
2018-05-17T09:35:33.535Z,65.37
2018-05-17T09:37:59.444Z,67.25
2018-05-17T09:40:25.319Z,67.82
2018-05-17T09:42:51.240Z,68.05
2018-05-17T09:45:17.094Z,69.17
2018-05-17T09:47:43.015Z,67.24
2018-05-17T09:50:08.784Z,67.31
2018-05-17T09:52:34.630Z,67.45
2018-05-17T09:55:00.506Z,67.71
2018-05-17T09:57:26.369Z,68.30
2018-05-17T09:59:52.198Z,67.88
2018-05-17T10:02:18.054Z,66.12
2018-05-17T10:04:43.931Z,66.02
2018-05-17T10:07:09.780Z,66.33
2018-05-17T10:09:35.651Z,64.82
2018-05-17T10:12:01.461Z,63.72
2018-05-17T10:14:27.305Z,63.60
2018-05-17T10:16:53.153Z,61.67
2018-05-17T10:19:18.997Z,61.07
2018-05-17T10:21:44.857Z,58.49
2018-05-17T10:24:10.712Z,59.90
2018-05-17T10:26:36.558Z,63.55
2018-05-17T10:29:02.484Z,63.22
2018-05-17T10:31:28.337Z,63.42
2018-05-17T10:33:54.200Z,64.07
2018-05-17T10:36:20.053Z,62.99
2018-05-17T10:38:45.927Z,62.18
2018-05-17T10:41:11.823Z,62.54
2018-05-17T10:43:37.704Z,62.81
2018-05-17T10:46:03.598Z,61.67
2018-05-17T10:48:29.441Z,61.86
2018-05-17T10:50:55.337Z,61.19
2018-05-17T10:53:21.190Z,62.47
2018-05-17T10:55:47.072Z,61.46
2018-05-17T10:58:12.925Z,62.26
2018-05-17T11:00:38.769Z,62.52
2018-05-17T11:03:04.643Z,61.32
2018-05-17T11:05:30.493Z,60.10
2018-05-17T11:07:56.341Z,60.21
2018-05-17T11:10:22.177Z,59.16
2018-05-17T11:12:48.038Z,60.75
2018-05-17T11:15:13.923Z,60.41
2018-05-17T11:17:39.783Z,61.88
2018-05-17T11:20:05.663Z,60.83
2018-05-17T11:22:31.528Z,61.59
2018-05-17T11:24:57.373Z,61.97
2018-05-17T11:27:23.304Z,62.12
2018-05-17T11:29:49.190Z,61.52
2018-05-17T11:32:15.038Z,63.11
2018-05-17T11:34:40.895Z,63.37
2018-05-17T11:37:06.787Z,61.82
2018-05-17T11:39:32.636Z,63.49
2018-05-17T11:41:58.501Z,64.34
2018-05-17T11:44:24.336Z,64.23
2018-05-17T11:46:50.210Z,64.25
2018-05-17T11:49:16.111Z,63.85
2018-05-17T11:51:41.960Z,64.40
2018-05-17T11:54:07.836Z,63.88
2018-05-17T11:56:33.673Z,62.78
2018-05-17T11:58:59.515Z,62.92
2018-05-17T12:01:25.367Z,62.47
2018-05-17T12:03:51.272Z,63.27
2018-05-17T12:06:17.128Z,64.11
2018-05-17T12:08:42.969Z,63.45
2018-05-17T12:11:08.844Z,63.59
2018-05-17T12:13:34.700Z,64.75
2018-05-17T12:16:00.542Z,64.56
2018-05-17T12:18:26.371Z,64.76
2018-05-17T12:20:52.214Z,64.68
2018-05-17T12:23:18.077Z,63.88
2018-05-17T12:25:43.921Z,63.10
2018-05-17T12:28:09.747Z,62.72
2018-05-17T12:30:35.584Z,62.65
2018-05-17T12:33:01.437Z,62.01
2018-05-17T12:35:27.305Z,60.43
2018-05-17T12:37:53.189Z,60.48
2018-05-17T12:40:19.053Z,59.95
2018-05-17T12:42:45.019Z,59.82
2018-05-17T12:45:10.825Z,58.45
2018-05-17T12:47:36.697Z,58.65
2018-05-17T12:50:02.592Z,59.09
2018-05-17T12:52:28.490Z,58.47
2018-05-17T12:54:54.328Z,58.16
2018-05-17T12:57:20.267Z,58.71
2018-05-17T12:59:46.211Z,58.86
2018-05-17T13:02:12.069Z,59.58
2018-05-17T13:04:37.948Z,59.72
2018-05-17T13:07:03.870Z,59.98
2018-05-17T13:09:29.714Z,59.61
2018-05-17T13:11:55.596Z,58.98
2018-05-17T13:14:21.437Z,60.07
2018-05-17T13:16:47.316Z,60.13
2018-05-17T13:19:13.192Z,60.23
2018-05-17T13:21:39.041Z,60.92
2018-05-17T13:24:04.939Z,59.94
2018-05-17T13:26:30.839Z,59.21
2018-05-17T13:28:56.710Z,59.42
2018-05-17T13:31:22.577Z,59.04
2018-05-17T13:33:48.433Z,60.01
2018-05-17T13:36:14.323Z,59.79
2018-05-17T13:38:40.217Z,59.74
2018-05-17T13:41:06.101Z,59.43
2018-05-17T13:43:31.994Z,59.88
2018-05-17T13:45:57.856Z,59.40
2018-05-17T13:48:23.751Z,59.88
2018-05-17T13:50:49.588Z,59.88
2018-05-17T13:53:15.472Z,59.30
2018-05-17T13:55:41.344Z,58.14
2018-05-17T13:58:07.221Z,58.10
2018-05-17T14:00:33.151Z,56.24
2018-05-17T14:02:59.028Z,56.54
2018-05-17T14:05:24.872Z,54.89
2018-05-17T14:07:50.728Z,55.11
2018-05-17T14:10:16.589Z,55.70
2018-05-17T14:12:42.421Z,56.52
2018-05-17T14:15:08.443Z,55.66
2018-05-17T14:17:34.208Z,56.47
2018-05-17T14:20:00.049Z,57.90
2018-05-17T14:22:25.933Z,55.50
2018-05-17T14:24:51.777Z,53.75
2018-05-17T14:27:17.648Z,54.43
2018-05-17T14:29:43.492Z,53.99
2018-05-17T14:32:09.362Z,54.98
2018-05-17T14:34:35.548Z,54.26
2018-05-17T14:37:01.444Z,53.42
2018-05-17T14:39:27.325Z,55.30
2018-05-17T14:41:53.212Z,54.60
2018-05-17T14:44:19.069Z,55.52
2018-05-17T14:46:45.812Z,53.89
2018-05-17T14:49:11.697Z,54.71
2018-05-17T14:51:37.541Z,55.76
2018-05-17T14:54:03.409Z,56.10
2018-05-17T14:56:29.274Z,55.69
2018-05-17T14:58:55.201Z,55.20
2018-05-17T15:01:21.162Z,54.90
2018-05-17T15:03:46.991Z,54.04
2018-05-17T15:06:12.865Z,55.01
2018-05-17T15:08:38.835Z,54.13
2018-05-17T15:11:04.577Z,53.68
2018-05-17T15:13:30.447Z,53.59
2018-05-17T15:15:56.324Z,54.75
2018-05-17T15:18:22.180Z,55.10
2018-05-17T15:20:48.034Z,57.69
2018-05-17T15:23:13.874Z,57.45
2018-05-17T15:25:39.757Z,56.16
2018-05-17T15:28:05.660Z,55.91
2018-05-17T15:30:31.597Z,56.79
2018-05-17T15:32:57.469Z,57.36
2018-05-17T15:35:23.446Z,57.25
2018-05-17T15:37:49.313Z,56.88
2018-05-17T15:40:15.172Z,56.67
2018-05-17T15:42:41.100Z,55.80
2018-05-17T15:45:06.980Z,56.22
2018-05-17T15:47:32.872Z,55.17
2018-05-17T15:49:58.716Z,54.95
2018-05-17T15:52:24.609Z,55.82
2018-05-17T15:54:50.530Z,56.49
2018-05-17T15:57:16.388Z,56.54
2018-05-17T15:59:42.275Z,56.32
2018-05-17T16:02:08.184Z,56.31
2018-05-17T16:04:34.033Z,56.77
2018-05-17T16:06:59.921Z,56.48
2018-05-17T16:09:25.809Z,55.82
2018-05-17T16:11:51.696Z,54.50
2018-05-17T16:14:17.564Z,54.20
2018-05-17T16:16:43.445Z,54.21
2018-05-17T16:19:09.334Z,54.54
2018-05-17T16:21:35.192Z,54.41
2018-05-17T16:24:01.053Z,54.39
2018-05-17T16:26:26.948Z,54.50
2018-05-17T16:28:52.871Z,54.58
2018-05-17T16:31:18.745Z,57.06
2018-05-17T16:33:44.630Z,56.50
2018-05-17T16:36:10.490Z,56.84
2018-05-17T16:38:36.329Z,56.67
2018-05-17T16:41:02.310Z,56.53
2018-05-17T16:43:28.103Z,57.28
2018-05-17T16:45:54.112Z,56.76
2018-05-17T16:48:20.062Z,57.07
2018-05-17T16:50:45.895Z,56.69
2018-05-17T16:53:11.815Z,56.59
2018-05-17T16:55:37.673Z,58.13
2018-05-17T16:58:03.581Z,57.69
2018-05-17T17:00:29.527Z,57.37
2018-05-17T17:02:55.340Z,57.08
2018-05-17T17:05:21.232Z,55.82
2018-05-17T17:07:47.133Z,57.51
2018-05-17T17:10:12.991Z,56.77
2018-05-17T17:12:38.894Z,57.23
2018-05-17T17:15:04.765Z,58.36
2018-05-17T17:17:30.651Z,58.85
2018-05-17T17:19:56.583Z,57.46
2018-05-17T17:22:22.464Z,56.92
2018-05-17T17:24:48.560Z,57.91
2018-05-17T17:27:14.421Z,57.04
2018-05-17T17:29:40.300Z,58.23
2018-05-17T17:32:06.229Z,57.63
2018-05-17T17:34:32.139Z,58.03
2018-05-17T17:36:58.002Z,57.06
2018-05-17T17:39:23.898Z,56.31
2018-05-17T17:41:49.905Z,57.53
2018-05-17T17:44:15.773Z,57.14
2018-05-17T17:46:41.624Z,57.26
2018-05-17T17:49:07.535Z,57.17
2018-05-17T17:51:33.411Z,57.18
2018-05-17T17:53:59.265Z,58.58
2018-05-17T17:56:25.101Z,61.42
2018-05-17T17:58:50.945Z,61.50
2018-05-17T18:01:16.917Z,61.74
2018-05-17T18:03:42.790Z,61.87
2018-05-17T18:06:08.702Z,61.75
2018-05-17T18:08:34.571Z,61.70
2018-05-17T18:11:00.422Z,61.95
2018-05-17T18:13:26.253Z,62.10
2018-05-17T18:15:52.248Z,62.42
2018-05-17T18:18:18.117Z,63.07
2018-05-17T18:20:44.044Z,62.10
2018-05-17T18:23:09.913Z,62.38
2018-05-17T18:25:35.753Z,63.21
2018-05-17T18:28:01.645Z,64.58
2018-05-17T18:30:27.580Z,64.59
2018-05-17T18:32:53.625Z,64.11
2018-05-17T18:35:19.514Z,64.67
2018-05-17T18:37:45.404Z,64.52
2018-05-17T18:40:11.290Z,64.60
2018-05-17T18:42:37.139Z,65.04
2018-05-17T18:45:03.094Z,65.00
2018-05-17T18:47:28.979Z,64.86
2018-05-17T18:49:54.935Z,64.86
2018-05-17T18:52:20.843Z,65.07
2018-05-17T18:54:46.729Z,65.18
2018-05-17T18:57:12.600Z,64.94
2018-05-17T18:59:38.499Z,65.41
2018-05-17T19:02:04.445Z,65.66
2018-05-17T19:04:30.329Z,65.64
2018-05-17T19:06:56.252Z,65.45
2018-05-17T19:09:22.132Z,65.37
2018-05-17T19:11:48.052Z,65.50
2018-05-17T19:14:13.967Z,65.60
2018-05-17T19:16:39.816Z,65.60
2018-05-17T19:19:05.680Z,64.86
2018-05-17T19:21:38.337Z,65.19
2018-05-17T19:24:04.244Z,64.97
2018-05-17T19:26:30.101Z,66.43
2018-05-17T19:28:55.969Z,66.80
2018-05-17T19:31:21.883Z,66.65
2018-05-17T19:33:47.857Z,67.31
2018-05-17T19:36:13.700Z,67.78
2018-05-17T19:38:39.675Z,67.83
2018-05-17T19:41:05.525Z,67.76
2018-05-17T19:43:31.402Z,68.12
2018-05-17T19:45:57.253Z,68.75
2018-05-17T19:48:23.166Z,68.62
2018-05-17T19:50:49.036Z,69.38
2018-05-17T19:53:15.026Z,69.56
2018-05-17T19:55:41.250Z,70.22
2018-05-17T19:58:07.129Z,70.58
2018-05-17T20:00:32.997Z,70.76
2018-05-17T20:02:58.836Z,70.68
2018-05-17T20:05:24.738Z,70.10
2018-05-17T20:07:50.587Z,71.09
2018-05-17T20:10:16.456Z,71.29
2018-05-17T20:12:42.301Z,70.63
2018-05-17T20:15:08.150Z,69.70
2018-05-17T20:17:34.004Z,69.04
2018-05-17T20:19:59.851Z,69.84
2018-05-17T20:22:25.692Z,68.89
2018-05-17T20:24:51.554Z,68.73
2018-05-17T20:27:17.428Z,67.93
2018-05-17T20:29:43.392Z,67.19
2018-05-17T20:32:09.264Z,67.98
2018-05-17T20:34:35.135Z,68.25
2018-05-17T20:37:01.100Z,67.60
2018-05-17T20:39:26.983Z,67.51
2018-05-17T20:41:52.844Z,69.87
2018-05-17T20:44:18.724Z,70.37
2018-05-17T20:46:44.610Z,71.01
2018-05-17T20:49:10.523Z,71.81
2018-05-17T20:51:36.338Z,73.09
2018-05-17T20:54:02.223Z,72.84
2018-05-17T20:56:28.107Z,72.38
2018-05-17T20:58:53.978Z,71.86
2018-05-17T21:01:19.844Z,72.29
2018-05-17T21:03:45.725Z,73.67
2018-05-17T21:06:11.553Z,72.90
2018-05-17T21:08:37.408Z,74.21
2018-05-17T21:11:03.242Z,74.55
2018-05-17T21:13:29.076Z,74.16
2018-05-17T21:15:54.945Z,74.85
2018-05-17T21:18:20.797Z,74.62
2018-05-17T21:20:46.669Z,75.15
2018-05-17T21:23:12.510Z,75.94
2018-05-17T21:25:38.353Z,76.71
2018-05-17T21:28:04.188Z,76.81
2018-05-17T21:30:30.079Z,76.60
2018-05-17T21:32:55.933Z,75.23
2018-05-17T21:35:21.792Z,75.41
2018-05-17T21:37:47.661Z,75.09
2018-05-17T21:40:13.550Z,75.39
2018-05-17T21:42:39.380Z,74.81
2018-05-17T21:45:05.201Z,74.43
2018-05-17T21:47:31.117Z,74.04
2018-05-17T21:49:56.954Z,73.72
2018-05-17T21:52:22.817Z,73.42
2018-05-17T21:54:48.679Z,74.38
2018-05-17T21:57:16.448Z,74.95
2018-05-17T21:59:42.293Z,74.13
2018-05-17T22:02:08.125Z,74.14
2018-05-17T22:04:33.965Z,74.30
2018-05-17T22:06:59.785Z,75.59
2018-05-17T22:09:25.628Z,75.34
2018-05-17T22:11:51.458Z,74.96
2018-05-17T22:14:17.289Z,76.16
2018-05-17T22:16:43.160Z,76.12
2018-05-17T22:19:09.008Z,76.06
2018-05-17T22:21:34.873Z,76.06
2018-05-17T22:24:00.741Z,76.69
2018-05-17T22:26:26.620Z,78.01
2018-05-17T22:28:52.480Z,77.99
2018-05-17T22:31:18.314Z,77.04
2018-05-17T22:33:44.165Z,76.90
2018-05-17T22:36:10.045Z,76.16
2018-05-17T22:38:35.889Z,76.62
2018-05-17T22:41:01.784Z,80.05
2018-05-17T22:43:27.648Z,80.99
2018-05-17T22:45:53.540Z,80.81
2018-05-17T22:48:19.423Z,83.11
2018-05-17T22:50:45.295Z,82.51
2018-05-17T22:53:11.168Z,82.53
2018-05-17T22:55:37.036Z,80.42
2018-05-17T22:58:15.306Z,80.01
2018-05-17T23:00:41.159Z,80.03
2018-05-17T23:03:07.018Z,79.83
2018-05-17T23:05:32.874Z,79.41
2018-05-17T23:07:58.706Z,78.35
2018-05-17T23:10:24.597Z,79.12
2018-05-17T23:12:50.442Z,79.64
2018-05-17T23:15:16.292Z,80.62
2018-05-17T23:17:42.122Z,81.03
2018-05-17T23:20:08.007Z,82.36
2018-05-17T23:22:35.753Z,81.64
2018-05-17T23:25:01.646Z,80.96
2018-05-17T23:27:27.490Z,80.45
2018-05-17T23:29:53.325Z,80.23
2018-05-17T23:32:19.158Z,81.35
2018-05-17T23:34:44.994Z,81.27
2018-05-17T23:37:18.069Z,80.66
2018-05-17T23:39:43.905Z,81.09
2018-05-17T23:42:09.757Z,80.70
2018-05-17T23:44:36.611Z,79.69
2018-05-17T23:47:02.506Z,79.40
2018-05-17T23:49:28.389Z,78.87
2018-05-17T23:51:54.253Z,78.98
2018-05-17T23:54:20.123Z,78.99
2018-05-17T23:56:46.014Z,79.64
2018-05-17T23:59:11.861Z,80.97
